CheckWX is a tool to help pilots better visualize weather data.  It is not intended as a substitute for an official pre-flight weather briefing.

10:22:41 UTC

KSLE TAF
McNary Field Airport
Salem, Oregon, USA
KSLE 220520Z 2206/2306 VRB03KT P6SM FEW035 BKN100 FM221400 18006KT 6SM -DZ OVC025 FM221800 18008KT 4SM -RA BR OVC015 FM222200 21007KT P6SM -SHRA BKN035

Sep-22@
06:00 UTC

Sep-22 @ 06:00 UTC

Sep-22@
14:00 UTC

Sep-22 @ 14:00 UTC

KSLE 220520Z 2206/2306 VRB03KT P6SM FEW035 BKN100
Wind
  • Variable at 3 KTS
Cloud Levels
  • Few at 3,500' AGL
  • Broken at 10,000' AGL

Sep-22@
14:00 UTC

Sep-22 @ 14:00 UTC

Sep-22@
18:00 UTC

Sep-22 @ 18:00 UTC

FM221400 18006KT 6SM -DZ OVC025

From

From Standard forecast or significant change

Wind
  • 180° at 6 KTS
Conditions
Light Drizzle
Cloud Levels
  • Overcast at 2,500' AGL

Sep-22@
18:00 UTC

Sep-22 @ 18:00 UTC

Sep-22@
22:00 UTC

Sep-22 @ 22:00 UTC

FM221800 18008KT 4SM -RA BR OVC015

From

From Standard forecast or significant change

Wind
  • 180° at 8 KTS
Conditions
Light Rain, Mist
Cloud Levels
  • Overcast at 1,500' AGL

Sep-22@
22:00 UTC

Sep-22 @ 22:00 UTC

Sep-23@
06:00 UTC

Sep-23 @ 06:00 UTC

FM222200 21007KT P6SM -SHRA BKN035

From

From Standard forecast or significant change

Wind
  • 210° at 7 KTS
Conditions
Light Rain
Cloud Levels
  • Broken at 3,500' AGL